createdAt,value
2022-11-03T00:00:25.198Z,2.70
2022-11-03T00:02:52.320Z,2.71
2022-11-03T00:05:19.329Z,2.69
2022-11-03T00:07:46.359Z,2.76
2022-11-03T00:10:13.395Z,2.82
2022-11-03T00:12:40.339Z,2.85
2022-11-03T00:15:07.837Z,2.95
2022-11-03T00:17:34.802Z,2.99
2022-11-03T00:20:01.895Z,3.04
2022-11-03T00:22:28.895Z,3.05
2022-11-03T00:24:55.844Z,3.06
2022-11-03T00:27:22.826Z,3.08
2022-11-03T00:29:49.754Z,3.05
2022-11-03T00:32:16.829Z,3.08
2022-11-03T00:34:43.842Z,3.08
2022-11-03T00:37:10.872Z,3.07
2022-11-03T00:39:37.855Z,3.08
2022-11-03T00:42:04.891Z,3.05
2022-11-03T00:44:31.867Z,3.07
2022-11-03T00:46:58.833Z,3.08
2022-11-03T00:49:25.835Z,3.14
2022-11-03T00:51:52.934Z,3.19
2022-11-03T00:54:19.949Z,3.26
2022-11-03T00:56:46.898Z,3.30
2022-11-03T00:59:13.844Z,3.35
2022-11-03T01:01:46.973Z,3.44
2022-11-03T01:04:16.765Z,3.51
2022-11-03T01:06:49.497Z,3.57
2022-11-03T01:09:27.518Z,3.61
2022-11-03T01:12:12.676Z,3.63
2022-11-03T01:14:46.684Z,3.68
2022-11-03T01:17:27.443Z,3.74
2022-11-03T01:19:55.129Z,3.81
2022-11-03T01:22:24.127Z,3.87
2022-11-03T01:24:51.313Z,3.90
2022-11-03T01:27:20.598Z,3.93
2022-11-03T01:29:47.560Z,3.93
2022-11-03T01:32:15.007Z,3.94
2022-11-03T01:34:42.007Z,3.95
2022-11-03T01:37:09.059Z,3.93
2022-11-03T01:39:36.100Z,3.94
2022-11-03T01:42:03.592Z,3.93
2022-11-03T01:44:39.515Z,3.94
2022-11-03T01:47:13.691Z,3.89
2022-11-03T01:49:49.220Z,3.81
2022-11-03T01:52:25.524Z,3.77
2022-11-03T01:55:07.014Z,3.64
2022-11-03T01:57:45.349Z,3.58
2022-11-03T02:00:13.100Z,3.56
2022-11-03T02:02:41.561Z,3.49
2022-11-03T02:05:10.523Z,3.46
2022-11-03T02:07:46.995Z,3.43
2022-11-03T02:10:14.176Z,3.38
2022-11-03T02:12:42.201Z,3.38
2022-11-03T02:15:13.237Z,3.38
2022-11-03T02:17:42.372Z,3.37
2022-11-03T02:20:16.027Z,3.36
2022-11-03T02:22:58.146Z,3.34
2022-11-03T02:25:46.228Z,3.31
2022-11-03T02:28:16.413Z,3.31
2022-11-03T02:30:54.377Z,3.30
2022-11-03T02:33:35.278Z,3.28
2022-11-03T02:36:15.580Z,3.26
2022-11-03T02:39:05.416Z,3.24
2022-11-03T02:41:35.468Z,3.26
2022-11-03T02:44:04.366Z,3.24
2022-11-03T02:46:34.015Z,3.25
2022-11-03T02:49:01.005Z,3.25
2022-11-03T02:51:27.949Z,3.23
2022-11-03T02:54:11.625Z,3.23
2022-11-03T02:56:47.348Z,3.21
2022-11-03T02:59:20.172Z,3.17
2022-11-03T03:01:55.623Z,3.14
2022-11-03T03:04:30.261Z,3.10
2022-11-03T03:07:08.163Z,3.12
2022-11-03T03:09:41.389Z,3.12
2022-11-03T03:12:11.898Z,3.09
2022-11-03T03:14:41.997Z,2.98
2022-11-03T03:17:15.226Z,2.95
2022-11-03T03:19:42.129Z,2.94
2022-11-03T03:22:19.561Z,2.92
2022-11-03T03:24:53.100Z,2.90
2022-11-03T03:27:24.634Z,2.89
2022-11-03T03:30:01.271Z,2.90
2022-11-03T03:32:34.378Z,2.88
2022-11-03T03:35:03.508Z,2.88
2022-11-03T03:37:32.740Z,2.84
2022-11-03T03:40:05.052Z,2.83
2022-11-03T03:42:34.244Z,2.82
2022-11-03T03:45:01.615Z,2.81
2022-11-03T03:47:31.151Z,2.85
2022-11-03T03:49:58.718Z,2.88
2022-11-03T03:52:26.511Z,2.89
2022-11-03T03:54:54.668Z,2.89
2022-11-03T03:57:24.216Z,2.93
2022-11-03T03:59:51.169Z,2.94
2022-11-03T04:02:18.456Z,2.94
2022-11-03T04:04:45.494Z,2.88
2022-11-03T04:07:12.675Z,2.84
2022-11-03T04:09:39.642Z,2.80
2022-11-03T04:12:08.654Z,2.77
2022-11-03T04:14:35.618Z,2.76
2022-11-03T04:17:02.741Z,2.75
2022-11-03T04:19:29.705Z,2.75
2022-11-03T04:21:56.672Z,2.75
2022-11-03T04:24:24.098Z,2.74
2022-11-03T04:26:51.108Z,2.75
2022-11-03T04:29:18.356Z,2.76
2022-11-03T04:31:45.534Z,2.80
2022-11-03T04:34:12.921Z,2.84
2022-11-03T04:36:39.919Z,2.82
2022-11-03T04:39:16.053Z,2.82
2022-11-03T04:41:43.122Z,2.83
2022-11-03T04:44:16.492Z,2.80
2022-11-03T04:46:44.946Z,2.78
2022-11-03T04:49:18.886Z,2.77
2022-11-03T04:51:45.842Z,2.77
2022-11-03T04:54:19.537Z,2.77
2022-11-03T04:56:46.566Z,2.75
2022-11-03T04:59:15.885Z,2.76
2022-11-03T05:01:44.694Z,2.76
2022-11-03T05:04:14.355Z,2.75
2022-11-03T05:06:42.194Z,2.73
2022-11-03T05:09:15.798Z,2.82
2022-11-03T05:11:45.336Z,2.78
2022-11-03T05:14:21.193Z,2.76
2022-11-03T05:16:50.062Z,2.73
2022-11-03T05:19:28.794Z,2.71
2022-11-03T05:21:58.051Z,2.73
2022-11-03T05:24:25.051Z,2.73
2022-11-03T05:26:54.376Z,2.72
2022-11-03T05:29:25.436Z,2.73
2022-11-03T05:31:54.677Z,2.73
2022-11-03T05:34:30.531Z,2.73
2022-11-03T05:37:21.945Z,2.74
2022-11-03T05:39:53.675Z,2.69
2022-11-03T05:42:25.200Z,2.67
2022-11-03T05:44:52.633Z,2.67
2022-11-03T05:47:31.191Z,2.72
2022-11-03T05:50:15.782Z,2.70
2022-11-03T05:52:44.392Z,2.62
2022-11-03T05:55:33.043Z,2.56
2022-11-03T05:58:11.710Z,2.56
2022-11-03T06:00:45.593Z,2.54
2022-11-03T06:03:24.446Z,2.59
2022-11-03T06:05:53.126Z,2.57
2022-11-03T06:08:30.457Z,2.59
2022-11-03T06:10:59.937Z,2.58
2022-11-03T06:13:30.855Z,2.56
2022-11-03T06:16:01.654Z,2.53
2022-11-03T06:18:36.137Z,2.53
2022-11-03T06:21:08.978Z,2.52
2022-11-03T06:23:37.427Z,2.53
2022-11-03T06:26:15.963Z,2.51
2022-11-03T06:28:43.043Z,2.51
2022-11-03T06:31:30.411Z,2.52
2022-11-03T06:33:58.714Z,2.53
2022-11-03T06:36:35.136Z,2.54
2022-11-03T06:39:09.540Z,2.57
2022-11-03T06:41:37.061Z,2.59
2022-11-03T06:44:23.752Z,2.61
2022-11-03T06:46:54.198Z,2.68
2022-11-03T06:49:35.287Z,2.72
2022-11-03T06:52:14.960Z,2.77
2022-11-03T06:54:41.977Z,2.81
2022-11-03T06:57:14.763Z,2.82
2022-11-03T06:59:41.770Z,2.95
2022-11-03T07:02:45.490Z,2.97
2022-11-03T07:05:21.402Z,3.18
2022-11-03T07:07:48.621Z,3.24
2022-11-03T07:10:16.114Z,3.26
2022-11-03T07:12:43.617Z,3.36
2022-11-03T07:15:25.427Z,3.40
2022-11-03T07:17:52.950Z,3.41
2022-11-03T07:20:20.023Z,3.45
2022-11-03T07:22:48.310Z,3.55
2022-11-03T07:25:21.767Z,3.65
2022-11-03T07:27:51.613Z,3.72
2022-11-03T07:30:30.306Z,3.73
2022-11-03T07:33:01.183Z,3.85
2022-11-03T07:35:53.190Z,3.95
2022-11-03T07:38:21.872Z,4.07
2022-11-03T07:40:50.742Z,4.20
2022-11-03T07:43:36.300Z,4.23
2022-11-03T07:46:09.666Z,4.33
2022-11-03T07:48:44.011Z,4.38
2022-11-03T07:51:21.959Z,4.47
2022-11-03T07:53:52.641Z,4.53
2022-11-03T07:56:21.544Z,4.51
2022-11-03T07:59:13.963Z,4.69
2022-11-03T08:01:43.750Z,4.76
2022-11-03T08:04:14.168Z,4.92
2022-11-03T08:06:41.267Z,5.07
2022-11-03T08:09:08.637Z,5.23
2022-11-03T08:11:35.620Z,5.24
2022-11-03T08:14:02.670Z,5.27
2022-11-03T08:16:29.737Z,5.30
2022-11-03T08:18:56.912Z,5.36
2022-11-03T08:21:23.962Z,5.45
2022-11-03T08:23:51.380Z,5.48
2022-11-03T08:26:18.808Z,5.58
2022-11-03T08:28:46.086Z,5.59
2022-11-03T08:31:16.168Z,5.62
2022-11-03T08:33:43.414Z,5.82
2022-11-03T08:36:11.086Z,5.77
2022-11-03T08:38:38.440Z,5.99
2022-11-03T08:41:05.617Z,6.05
2022-11-03T08:43:32.684Z,6.24
2022-11-03T08:46:09.669Z,6.32
2022-11-03T08:48:42.687Z,6.52
2022-11-03T08:51:09.796Z,6.69
2022-11-03T08:53:36.896Z,6.74
2022-11-03T08:56:04.049Z,6.82
2022-11-03T08:58:33.787Z,7.05
2022-11-03T09:01:00.786Z,7.09
2022-11-03T09:03:28.041Z,7.27
2022-11-03T09:05:55.166Z,7.47
2022-11-03T09:11:09.234Z,7.96
2022-11-03T09:13:36.351Z,8.18
2022-11-03T09:16:03.558Z,8.32
2022-11-03T09:18:30.537Z,8.53
2022-11-03T09:20:57.783Z,8.72
2022-11-03T09:23:24.851Z,8.86
2022-11-03T09:25:51.822Z,9.00
2022-11-03T09:28:18.893Z,9.08
2022-11-03T09:30:45.933Z,9.22
2022-11-03T09:33:15.655Z,9.38
2022-11-03T09:35:42.762Z,9.54
2022-11-03T09:38:09.938Z,9.62
2022-11-03T09:40:37.528Z,9.69
2022-11-03T09:43:04.916Z,9.70
2022-11-03T09:45:32.676Z,9.77
2022-11-03T09:48:00.980Z,9.82
2022-11-03T09:50:28.374Z,9.98
2022-11-03T09:52:56.584Z,10.04
2022-11-03T09:55:26.508Z,10.11
2022-11-03T09:58:02.003Z,10.25
2022-11-03T10:00:29.100Z,10.32
2022-11-03T10:02:56.527Z,10.43
2022-11-03T10:05:26.083Z,10.58
2022-11-03T10:07:58.987Z,10.73
2022-11-03T10:10:26.829Z,10.82
2022-11-03T10:12:54.111Z,10.92
2022-11-03T10:15:23.560Z,11.05
2022-11-03T10:17:51.561Z,11.07
2022-11-03T10:20:21.210Z,11.18
2022-11-03T10:22:53.394Z,11.33
2022-11-03T10:25:41.454Z,11.35
2022-11-03T10:28:25.827Z,11.24
2022-11-03T10:31:12.669Z,11.34
2022-11-03T10:33:51.369Z,11.39
2022-11-03T10:36:18.294Z,11.45
2022-11-03T10:38:45.322Z,11.52
2022-11-03T10:41:15.230Z,11.63
2022-11-03T10:43:44.730Z,11.78
2022-11-03T10:46:36.625Z,11.87
2022-11-03T10:49:05.051Z,12.01
2022-11-03T10:51:35.821Z,12.16
2022-11-03T10:54:04.854Z,12.25
2022-11-03T10:56:32.734Z,12.34
2022-11-03T10:59:00.715Z,12.47
2022-11-03T11:01:27.966Z,12.48
2022-11-03T11:03:55.539Z,12.59
2022-11-03T11:06:28.630Z,12.69
2022-11-03T11:09:01.801Z,12.76
2022-11-03T11:11:28.970Z,12.75
2022-11-03T11:14:28.253Z,12.70
2022-11-03T11:16:57.637Z,12.74
2022-11-03T11:19:26.529Z,12.74
2022-11-03T11:21:54.484Z,12.99
2022-11-03T11:24:43.377Z,13.08
2022-11-03T11:27:36.667Z,13.21
2022-11-03T11:30:27.662Z,13.32
2022-11-03T11:33:22.446Z,13.40
2022-11-03T11:35:49.426Z,13.46
2022-11-03T11:38:44.957Z,13.51
2022-11-03T11:41:11.946Z,13.46
2022-11-03T11:43:39.133Z,13.44
2022-11-03T11:46:33.536Z,13.59
2022-11-03T11:49:16.254Z,13.44
2022-11-03T11:51:43.340Z,13.44
2022-11-03T11:54:20.567Z,13.42
2022-11-03T11:56:49.800Z,13.45
2022-11-03T11:59:24.772Z,13.55
2022-11-03T12:01:55.433Z,13.64
2022-11-03T12:04:28.392Z,13.70
2022-11-03T12:06:55.512Z,13.80
2022-11-03T12:09:25.412Z,13.84
2022-11-03T12:11:56.123Z,13.89
2022-11-03T12:14:40.042Z,13.69
2022-11-03T12:17:15.933Z,13.83
2022-11-03T12:19:52.879Z,13.84
2022-11-03T12:22:25.724Z,13.79
2022-11-03T12:24:56.100Z,13.80
2022-11-03T12:27:26.465Z,13.88
2022-11-03T12:29:55.728Z,13.85
2022-11-03T12:32:33.498Z,13.84
2022-11-03T12:35:05.705Z,13.90
2022-11-03T12:37:32.742Z,13.81
2022-11-03T12:39:59.807Z,13.82
2022-11-03T12:42:26.794Z,13.86
2022-11-03T12:44:53.830Z,13.93
2022-11-03T12:47:21.066Z,13.91
2022-11-03T12:49:48.405Z,13.88
2022-11-03T12:52:15.569Z,13.85
2022-11-03T12:54:42.611Z,13.94
2022-11-03T12:57:09.751Z,13.93
2022-11-03T12:59:36.941Z,13.88
2022-11-03T13:02:04.242Z,13.94
2022-11-03T13:04:31.431Z,13.90
2022-11-03T13:06:58.490Z,13.85
2022-11-03T13:09:25.488Z,13.84
2022-11-03T13:11:52.464Z,13.77
2022-11-03T13:14:19.482Z,13.71
2022-11-03T13:16:46.452Z,13.75
2022-11-03T13:19:13.476Z,13.79
2022-11-03T13:21:40.444Z,13.70
2022-11-03T13:24:07.505Z,13.75
2022-11-03T13:26:34.646Z,13.71
2022-11-03T13:29:01.708Z,13.77
2022-11-03T13:31:28.754Z,13.82
2022-11-03T13:33:55.713Z,13.86
2022-11-03T13:36:22.721Z,13.81
2022-11-03T13:38:49.762Z,13.71
2022-11-03T13:41:16.711Z,13.68
2022-11-03T13:43:43.701Z,13.64
2022-11-03T13:46:10.704Z,13.61
2022-11-03T13:49:31.862Z,13.67
2022-11-03T13:51:24.695Z,13.61
2022-11-03T13:59:26.364Z,13.53
2022-11-03T14:04:41.281Z,13.52
2022-11-03T14:07:08.681Z,13.55
2022-11-03T14:12:03.846Z,13.47
2022-11-03T14:14:31.487Z,13.48
2022-11-03T14:16:58.470Z,13.46
2022-11-03T14:19:31.745Z,13.43
2022-11-03T14:22:04.215Z,13.40
2022-11-03T14:24:31.268Z,13.34
2022-11-03T14:26:58.316Z,13.27
2022-11-03T14:29:25.361Z,13.24
2022-11-03T14:31:52.603Z,13.05
2022-11-03T14:34:19.641Z,13.00
2022-11-03T14:36:46.756Z,12.93
2022-11-03T14:39:14.043Z,12.82
2022-11-03T14:41:41.073Z,12.82
2022-11-03T14:44:08.039Z,12.73
2022-11-03T14:46:34.991Z,12.69
2022-11-03T14:49:02.012Z,12.65
2022-11-03T14:51:30.115Z,12.60
2022-11-03T14:53:57.389Z,12.53
2022-11-03T14:56:24.736Z,12.47
2022-11-03T14:58:51.942Z,12.43
2022-11-03T15:01:20.224Z,12.36
2022-11-03T15:03:47.370Z,12.25
2022-11-03T15:06:14.455Z,12.21
2022-11-03T15:08:41.443Z,12.18
2022-11-03T15:11:08.967Z,12.10
2022-11-03T15:13:41.655Z,11.97
2022-11-03T15:16:13.017Z,12.00
2022-11-03T15:18:40.061Z,11.96
2022-11-03T15:21:07.064Z,11.99
2022-11-03T15:26:21.074Z,11.88
2022-11-03T15:28:48.163Z,11.83
2022-11-03T15:31:15.138Z,11.72
2022-11-03T15:33:42.145Z,11.64
2022-11-03T15:36:09.277Z,11.50
2022-11-03T15:38:36.279Z,11.43
2022-11-03T15:41:03.382Z,11.30
2022-11-03T15:43:30.434Z,11.23
2022-11-03T15:45:57.460Z,11.16
2022-11-03T15:48:24.482Z,11.08
2022-11-03T15:50:51.479Z,10.92
2022-11-03T15:53:18.478Z,10.86
2022-11-03T15:55:45.442Z,10.80
2022-11-03T15:58:12.409Z,10.72
2022-11-03T16:00:39.420Z,10.65
2022-11-03T16:03:06.500Z,10.57
2022-11-03T16:05:33.694Z,10.49
2022-11-03T16:08:00.655Z,10.43
2022-11-03T16:10:27.619Z,10.46
2022-11-03T16:12:54.633Z,10.49
2022-11-03T16:15:21.666Z,10.49
2022-11-03T16:17:48.609Z,10.53
2022-11-03T16:20:15.609Z,10.52
2022-11-03T16:22:43.432Z,10.54
2022-11-03T16:25:13.421Z,10.58
2022-11-03T16:27:42.649Z,10.62
2022-11-03T16:30:10.422Z,10.65
2022-11-03T16:32:37.741Z,10.68
2022-11-03T16:35:05.223Z,10.69
2022-11-03T16:37:32.331Z,10.71
2022-11-03T16:39:59.327Z,10.68
2022-11-03T16:42:26.388Z,10.67
2022-11-03T16:44:53.386Z,10.67
2022-11-03T16:47:20.335Z,10.65
2022-11-03T16:49:47.382Z,10.58
2022-11-03T16:52:15.376Z,10.51
2022-11-03T16:54:42.321Z,10.50
2022-11-03T16:57:09.267Z,10.39
2022-11-03T16:59:36.250Z,10.44
2022-11-03T17:02:03.380Z,10.39
2022-11-03T17:04:30.444Z,10.37
2022-11-03T17:06:57.545Z,10.39
2022-11-03T17:09:24.537Z,10.35
2022-11-03T17:11:51.529Z,10.31
2022-11-03T17:14:18.509Z,10.26
2022-11-03T17:16:45.647Z,10.22
2022-11-03T17:19:13.559Z,10.20
2022-11-03T17:21:40.628Z,10.18
2022-11-03T17:24:08.279Z,10.15
2022-11-03T17:26:43.351Z,10.19
2022-11-03T17:29:17.416Z,10.21
2022-11-03T17:31:44.537Z,10.19
2022-11-03T17:34:11.830Z,10.18
2022-11-03T17:36:39.165Z,10.16
2022-11-03T17:39:06.164Z,10.17
2022-11-03T17:41:35.371Z,10.18
2022-11-03T17:44:02.517Z,10.17
2022-11-03T17:46:30.525Z,10.19
2022-11-03T17:48:57.594Z,10.17
2022-11-03T17:51:24.681Z,10.21
2022-11-03T17:53:51.847Z,10.24
2022-11-03T17:56:30.157Z,10.21
2022-11-03T17:58:58.169Z,10.23
2022-11-03T18:01:26.610Z,10.24
2022-11-03T18:03:53.911Z,10.24
2022-11-03T18:06:21.652Z,10.18
2022-11-03T18:08:49.151Z,10.19
2022-11-03T18:11:24.324Z,10.20
2022-11-03T18:13:51.383Z,10.19
2022-11-03T18:16:18.469Z,10.21
2022-11-03T18:18:45.715Z,10.18
2022-11-03T18:21:21.806Z,10.15
2022-11-03T18:23:48.985Z,10.13
2022-11-03T18:26:21.365Z,10.13
2022-11-03T18:28:49.320Z,10.11
2022-11-03T18:31:23.530Z,10.10
2022-11-03T18:33:52.014Z,10.08
2022-11-03T18:36:20.053Z,10.09
2022-11-03T18:38:47.633Z,9.99
2022-11-03T18:41:19.820Z,10.02
2022-11-03T18:43:46.810Z,10.03
2022-11-03T18:46:13.780Z,9.99
2022-11-03T18:48:40.995Z,9.93
2022-11-03T18:51:08.753Z,9.96
2022-11-03T18:53:35.769Z,9.95
2022-11-03T18:56:02.837Z,9.99
2022-11-03T18:58:32.955Z,9.97
2022-11-03T19:01:00.015Z,10.00
2022-11-03T19:03:27.707Z,9.98
2022-11-03T19:05:54.833Z,10.00
2022-11-03T19:08:32.998Z,10.01
2022-11-03T19:11:00.454Z,9.99
2022-11-03T19:13:35.167Z,10.01
2022-11-03T19:16:09.443Z,10.04
2022-11-03T19:18:36.642Z,9.99
2022-11-03T19:21:11.639Z,9.94
2022-11-03T19:23:38.660Z,9.92
2022-11-03T19:26:12.920Z,9.94
2022-11-03T19:28:39.944Z,10.01
2022-11-03T19:31:14.009Z,10.07
2022-11-03T19:33:42.568Z,10.08
2022-11-03T19:36:09.622Z,10.06
2022-11-03T19:38:36.641Z,10.00
2022-11-03T19:41:03.684Z,9.92
2022-11-03T19:43:34.616Z,9.86
2022-11-03T19:46:04.178Z,9.89
2022-11-03T19:48:34.125Z,9.89
2022-11-03T19:51:02.654Z,9.87
2022-11-03T19:53:29.891Z,9.92
2022-11-03T19:55:57.096Z,9.93
2022-11-03T19:58:26.678Z,9.92
2022-11-03T20:00:54.839Z,9.85
2022-11-03T20:03:23.096Z,9.89
2022-11-03T20:05:57.152Z,9.85
2022-11-03T20:08:30.845Z,9.87
2022-11-03T20:10:58.175Z,9.89
2022-11-03T20:13:29.182Z,9.92
2022-11-03T20:16:00.754Z,9.89
2022-11-03T20:18:28.653Z,9.93
2022-11-03T20:20:56.234Z,9.94
2022-11-03T20:23:28.618Z,9.94
2022-11-03T20:25:57.201Z,9.94
2022-11-03T20:28:27.251Z,9.96
2022-11-03T20:30:55.033Z,9.94
2022-11-03T20:33:24.971Z,9.98
2022-11-03T20:35:55.484Z,10.00
2022-11-03T20:38:24.819Z,10.01
2022-11-03T20:40:54.430Z,10.03
2022-11-03T20:43:27.826Z,9.99
2022-11-03T20:45:56.698Z,9.93
2022-11-03T20:48:24.136Z,9.88
2022-11-03T20:50:52.139Z,9.88
2022-11-03T20:53:22.296Z,9.86
2022-11-03T20:55:50.555Z,9.85
2022-11-03T20:58:18.125Z,9.83
2022-11-03T21:00:47.121Z,9.85
2022-11-03T21:06:16.490Z,9.88
2022-11-03T21:08:44.586Z,9.89
2022-11-03T21:11:20.813Z,9.89
2022-11-03T21:13:48.415Z,9.90
2022-11-03T21:16:24.746Z,9.88
2022-11-03T21:18:51.939Z,9.91
2022-11-03T21:21:21.234Z,9.90
2022-11-03T21:23:49.580Z,9.90
2022-11-03T21:26:16.645Z,9.92
2022-11-03T21:28:43.697Z,9.92
2022-11-03T21:31:13.129Z,9.92
2022-11-03T21:33:40.188Z,9.90
2022-11-03T21:36:07.584Z,9.91
2022-11-03T21:38:34.600Z,9.91
2022-11-03T21:41:01.581Z,9.94
2022-11-03T21:43:29.596Z,9.97
2022-11-03T21:46:07.866Z,9.96
2022-11-03T21:48:36.004Z,9.93
2022-11-03T21:51:03.747Z,9.94
2022-11-03T21:53:31.225Z,9.91
2022-11-03T21:55:58.205Z,9.90
2022-11-03T21:58:25.175Z,9.89
2022-11-03T22:00:52.218Z,9.92
2022-11-03T22:03:20.263Z,9.91
2022-11-03T22:05:47.254Z,9.91
2022-11-03T22:08:14.243Z,9.91
2022-11-03T22:10:41.275Z,9.94
2022-11-03T22:13:08.646Z,9.96
2022-11-03T22:15:35.965Z,9.96
2022-11-03T22:18:04.717Z,9.98
2022-11-03T22:20:31.876Z,9.86
2022-11-03T22:23:02.067Z,9.91
2022-11-03T22:25:29.190Z,9.93
2022-11-03T22:27:57.139Z,9.96
2022-11-03T22:30:24.142Z,9.94
2022-11-03T22:32:53.423Z,9.95
2022-11-03T22:35:22.034Z,9.89
2022-11-03T22:38:26.970Z,9.86
2022-11-03T22:40:53.997Z,9.88
2022-11-03T22:43:21.572Z,9.91
2022-11-03T22:45:48.618Z,9.88
2022-11-03T22:48:15.741Z,9.86
2022-11-03T22:50:43.274Z,9.89
2022-11-03T22:53:10.513Z,9.90
2022-11-03T22:55:37.670Z,9.94
2022-11-03T22:58:04.628Z,9.94
2022-11-03T23:00:31.844Z,9.93
2022-11-03T23:02:58.892Z,9.96
2022-11-03T23:05:25.913Z,9.92
2022-11-03T23:07:52.926Z,9.93
2022-11-03T23:10:20.045Z,9.93
2022-11-03T23:12:47.050Z,9.96
2022-11-03T23:15:14.223Z,9.98
2022-11-03T23:17:41.235Z,9.97
2022-11-03T23:20:08.905Z,9.95
2022-11-03T23:22:35.956Z,9.99
2022-11-03T23:25:03.212Z,9.96
2022-11-03T23:27:30.235Z,10.00
2022-11-03T23:29:57.198Z,10.00
2022-11-03T23:32:24.364Z,9.94
2022-11-03T23:34:51.388Z,9.76
2022-11-03T23:37:18.333Z,9.73
2022-11-03T23:39:45.334Z,9.74
2022-11-03T23:42:12.340Z,9.73
2022-11-03T23:44:39.409Z,9.75
2022-11-03T23:47:08.310Z,9.77
2022-11-03T23:49:35.343Z,9.89
2022-11-03T23:52:02.393Z,10.00
2022-11-03T23:54:29.481Z,10.09
2022-11-03T23:56:56.482Z,10.17
2022-11-03T23:59:24.245Z,10.27
